createdAt,value
2018-07-10T05:26:26.399Z,98080.06
2018-07-10T05:27:28.873Z,98079.31
2018-07-10T05:28:31.312Z,98076.91
2018-07-10T05:29:33.779Z,98075.82
2018-07-10T05:30:36.223Z,98066.50
2018-07-10T05:31:39.350Z,98068.91
2018-07-10T05:32:42.976Z,98072.34
2018-07-10T05:33:45.591Z,98068.91
2018-07-10T05:34:48.300Z,98070.41
2018-07-10T05:35:50.751Z,98067.39
2018-07-10T05:36:53.629Z,98069.08
2018-07-10T05:37:56.122Z,98069.19
2018-07-10T05:38:59.074Z,98073.09
2018-07-10T05:40:01.545Z,98073.95
2018-07-10T05:41:04.005Z,98078.42
2018-07-10T05:42:07.160Z,98071.39
2018-07-10T05:43:10.546Z,98075.76
2018-07-10T05:44:13.055Z,98073.09
2018-07-10T05:45:16.332Z,98074.73
2018-07-10T05:46:18.847Z,98078.23
2018-07-10T05:47:22.265Z,98081.11
2018-07-10T05:48:24.698Z,98074.14
2018-07-10T05:49:27.522Z,98084.34
2018-07-10T05:50:29.964Z,98084.27
2018-07-10T05:51:32.412Z,98078.81
2018-07-10T05:52:35.006Z,98019.42
2018-07-10T05:53:37.488Z,98084.55
2018-07-10T05:54:39.928Z,98080.73
2018-07-10T05:55:42.726Z,98078.93
2018-07-10T05:56:45.153Z,98078.73
2018-07-10T05:57:47.576Z,98079.21
2018-07-10T05:58:51.709Z,98039.52
2018-07-10T05:59:54.334Z,98041.16
2018-07-10T06:00:56.970Z,98075.56
2018-07-10T06:01:59.752Z,98072.45
2018-07-10T06:03:02.198Z,98069.00
2018-07-10T06:04:04.690Z,98071.28
2018-07-10T06:05:07.230Z,98069.08
2018-07-10T06:06:09.742Z,98073.47
2018-07-10T06:07:12.196Z,97990.16
2018-07-10T06:08:15.143Z,98069.47
2018-07-10T06:09:17.556Z,98075.20
2018-07-10T06:10:20.017Z,98074.34
2018-07-10T06:11:22.488Z,98004.06
2018-07-10T06:12:24.963Z,98078.81
2018-07-10T06:13:28.898Z,98080.08
2018-07-10T06:14:32.379Z,98075.20
2018-07-10T06:15:34.828Z,98076.62
2018-07-10T06:16:37.298Z,98072.89
2018-07-10T06:17:39.755Z,98066.22
2018-07-10T06:18:42.573Z,97999.70
2018-07-10T06:19:45.281Z,98074.23
2018-07-10T06:20:48.147Z,98077.33
2018-07-10T06:21:50.668Z,98075.41
2018-07-10T06:22:53.246Z,98072.66
2018-07-10T06:23:55.707Z,98066.84
2018-07-10T06:24:58.813Z,98069.52
2018-07-10T07:56:53.518Z,98035.31
2018-07-10T07:57:58.645Z,98031.06
2018-07-10T07:59:02.120Z,97897.73
2018-07-10T11:02:33.533Z,97957.66
2018-07-10T11:03:37.114Z,97964.41
2018-07-10T11:04:45.431Z,97968.98
2018-07-10T11:05:48.484Z,97897.50
2018-07-10T11:06:50.949Z,97888.38
2018-07-10T11:07:54.744Z,97962.44
2018-07-10T11:08:58.277Z,97961.22
2018-07-10T11:10:01.382Z,97960.55
2018-07-10T11:11:04.612Z,97966.56
2018-07-10T11:12:07.173Z,97965.89
2018-07-10T11:13:09.903Z,97953.75
2018-07-10T11:14:15.752Z,97896.33
2018-07-10T11:15:18.394Z,97944.72
2018-07-10T11:16:20.883Z,97965.50
2018-07-10T11:17:23.754Z,97963.66
2018-07-10T11:18:26.814Z,97961.09
2018-07-10T11:19:32.328Z,97962.44
2018-07-10T11:20:35.873Z,97953.95
2018-07-10T11:21:38.460Z,97948.48
2018-07-10T11:22:41.748Z,97867.95
2018-07-10T11:23:44.213Z,97947.34
2018-07-10T11:24:46.673Z,97952.84
2018-07-10T11:25:49.114Z,97948.84
2018-07-10T11:26:51.819Z,97937.67
2018-07-10T11:29:03.384Z,97944.36
2018-07-10T11:30:07.888Z,97933.20
2018-07-10T11:31:10.393Z,97946.36
2018-07-10T11:32:14.064Z,97931.19
2018-07-10T11:33:16.482Z,97946.52
2018-07-10T11:34:18.963Z,97937.55
2018-07-10T11:35:21.510Z,97940.81
2018-07-10T11:36:24.077Z,97936.59
2018-07-10T15:41:41.784Z,97827.95
2018-07-10T15:42:44.460Z,97830.86
2018-07-10T15:43:46.942Z,97836.63
2018-07-10T15:44:49.444Z,97827.07
2018-07-10T15:45:52.726Z,97821.95
2018-07-10T15:46:57.085Z,97823.16
2018-07-10T15:48:00.325Z,97816.58
2018-07-10T15:49:02.747Z,97819.83
2018-07-10T15:50:06.397Z,97816.17
2018-07-10T15:51:09.639Z,97810.24
2018-07-10T15:52:14.094Z,97817.22
2018-07-10T15:53:18.098Z,97815.50
2018-07-10T15:54:20.541Z,97817.42
2018-07-10T15:55:24.261Z,97793.90
2018-07-10T15:56:27.810Z,97815.31
2018-07-10T16:17:42.137Z,97789.68
2018-07-10T16:18:45.742Z,97785.28
2018-07-10T16:19:48.724Z,97782.08
2018-07-10T16:20:51.296Z,97792.91
2018-07-10T16:21:53.763Z,97781.49
2018-07-10T16:22:56.652Z,97780.64
2018-07-10T16:23:59.225Z,97791.39
2018-07-10T16:25:02.367Z,97787.66
2018-07-10T16:26:04.854Z,97783.17
2018-07-10T16:27:08.222Z,97781.63
2018-07-10T16:28:11.658Z,97775.58
2018-07-10T16:29:14.785Z,97767.95
2018-07-10T16:30:17.237Z,97777.30
2018-07-10T16:31:20.857Z,97754.59
2018-07-10T16:32:23.848Z,97760.59
2018-07-10T16:33:26.382Z,97647.20
2018-07-10T16:34:28.928Z,97763.52
2018-07-10T16:35:32.879Z,97765.80
2018-07-10T16:36:35.330Z,97758.66
2018-07-10T16:37:37.760Z,97764.38
2018-07-10T16:38:40.265Z,97757.31
2018-07-10T16:39:43.149Z,97752.09
2018-07-10T16:40:45.604Z,97755.98
2018-07-10T16:41:48.397Z,97751.97
2018-07-10T16:42:50.994Z,97747.97
2018-07-10T16:43:53.444Z,97745.08
2018-07-10T16:44:55.876Z,97751.38
2018-07-10T16:45:58.300Z,97743.27
2018-07-10T16:47:01.775Z,97754.70
2018-07-10T16:48:04.508Z,97755.56
2018-07-10T16:49:07.144Z,97750.48
2018-07-10T16:50:09.582Z,97745.14
2018-07-10T16:51:12.026Z,97750.87
2018-07-10T16:52:14.472Z,97738.84
2018-07-10T16:53:17.952Z,97745.14
2018-07-10T16:55:31.034Z,97741.61
2018-07-10T16:56:34.549Z,97734.84
2018-07-10T16:57:36.983Z,97732.64
2018-07-10T16:58:39.455Z,97736.27
2018-07-10T16:59:41.930Z,97734.06
2018-07-10T17:00:44.711Z,97733.11
2018-07-10T17:01:47.400Z,97734.06
2018-07-10T17:02:49.839Z,97735.40
2018-07-10T17:03:52.504Z,97741.94
2018-07-10T17:04:55.040Z,97724.39
2018-07-10T17:05:57.485Z,97620.86
2018-07-10T17:07:01.515Z,97736.06
2018-07-10T17:08:05.165Z,97630.06
2018-07-10T17:09:08.355Z,97742.95
2018-07-10T17:10:12.124Z,97744.91
2018-07-10T17:11:14.863Z,97737.48
2018-07-10T17:12:17.776Z,97740.07
2018-07-10T17:13:21.645Z,97747.37
2018-07-10T17:14:24.933Z,97752.23
2018-07-10T17:15:28.073Z,97652.16
2018-07-10T17:16:30.505Z,97738.14
2018-07-10T17:17:32.992Z,97739.36
2018-07-10T17:18:35.455Z,97734.39
2018-07-10T17:19:40.260Z,97736.68
2018-07-10T17:20:44.075Z,97733.53
2018-07-10T17:21:47.342Z,97736.33
2018-07-10T17:22:49.776Z,97732.20
2018-07-10T17:23:53.412Z,97733.53
2018-07-10T17:24:55.856Z,97732.47
2018-07-10T17:25:58.586Z,97729.31
2018-07-10T17:27:03.673Z,97725.31
2018-07-10T17:28:09.238Z,97724.57
2018-07-10T17:29:11.675Z,97720.56
2018-07-10T17:31:22.501Z,97730.27
2018-07-10T17:32:24.965Z,97726.26
2018-07-10T17:33:28.416Z,97726.91
2018-07-10T17:34:30.859Z,97736.73
2018-07-10T17:35:33.652Z,97736.86
2018-07-10T17:36:36.452Z,97734.63
2018-07-10T17:37:39.229Z,97734.08
2018-07-10T17:38:41.650Z,97627.17
2018-07-10T17:39:44.229Z,97733.17
